sensor_id;sensor_type;location;lat;lon;timestamp;temperature;humidity
22984;DHT22;11658;48.908;9.140;2022-08-18T03:02:32;18.50;99.90
22984;DHT22;11658;48.908;9.140;2022-08-18T03:04:58;18.50;99.90
22984;DHT22;11658;48.908;9.140;2022-08-18T03:07:23;18.50;99.90
22984;DHT22;11658;48.908;9.140;2022-08-18T03:09:49;18.60;99.90
22984;DHT22;11658;48.908;9.140;2022-08-18T03:12:15;18.60;99.90
22984;DHT22;11658;48.908;9.140;2022-08-18T03:14:40;18.60;99.90
22984;DHT22;11658;48.908;9.140;2022-08-18T03:17:07;18.70;99.90
22984;DHT22;11658;48.908;9.140;2022-08-18T03:19:33;18.70;99.90
22984;DHT22;11658;48.908;9.140;2022-08-18T03:21:59;18.70;99.90
22984;DHT22;11658;48.908;9.140;2022-08-18T03:24:29;18.60;99.90
22984;DHT22;11658;48.908;9.140;2022-08-18T03:26:55;18.70;99.90
22984;DHT22;11658;48.908;9.140;2022-08-18T03:29:24;18.70;99.90
22984;DHT22;11658;48.908;9.140;2022-08-18T03:31:50;18.60;99.90
22984;DHT22;11658;48.908;9.140;2022-08-18T03:34:18;18.60;99.90
22984;DHT22;11658;48.908;9.140;2022-08-18T03:36:44;18.60;99.90
22984;DHT22;11658;48.908;9.140;2022-08-18T03:39:11;18.60;99.90
22984;DHT22;11658;48.908;9.140;2022-08-18T03:41:39;18.60;99.90
22984;DHT22;11658;48.908;9.140;2022-08-18T03:44:07;18.60;99.90
22984;DHT22;11658;48.908;9.140;2022-08-18T03:46:33;18.60;99.90
22984;DHT22;11658;48.908;9.140;2022-08-18T03:48:58;18.70;99.90
22984;DHT22;11658;48.908;9.140;2022-08-18T03:51:28;18.80;99.90
22984;DHT22;11658;48.908;9.140;2022-08-18T03:53:57;18.80;99.90
22984;DHT22;11658;48.908;9.140;2022-08-18T03:56:28;18.80;99.90
22984;DHT22;11658;48.908;9.140;2022-08-18T03:58:58;18.80;99.90
22984;DHT22;11658;48.908;9.140;2022-08-18T04:01:27;18.90;99.90
22984;DHT22;11658;48.908;9.140;2022-08-18T04:03:55;18.90;99.90
22984;DHT22;11658;48.908;9.140;2022-08-18T04:06:30;18.90;99.90
22984;DHT22;11658;48.908;9.140;2022-08-18T04:08:59;18.90;99.90
22984;DHT22;11658;48.908;9.140;2022-08-18T04:11:25;18.90;99.90
22984;DHT22;11658;48.908;9.140;2022-08-18T04:13:53;18.90;99.90
22984;DHT22;11658;48.908;9.140;2022-08-18T04:16:25;18.90;99.90
22984;DHT22;11658;48.908;9.140;2022-08-18T04:18:51;18.90;99.90
22984;DHT22;11658;48.908;9.140;2022-08-18T04:21:16;18.90;99.90
22984;DHT22;11658;48.908;9.140;2022-08-18T04:23:43;18.90;99.90
22984;DHT22;11658;48.908;9.140;2022-08-18T04:26:09;18.90;99.90
22984;DHT22;11658;48.908;9.140;2022-08-18T04:28:36;18.90;99.90
22984;DHT22;11658;48.908;9.140;2022-08-18T04:31:09;18.90;99.90
22984;DHT22;11658;48.908;9.140;2022-08-18T04:33:36;18.90;99.90
22984;DHT22;11658;48.908;9.140;2022-08-18T04:36:11;19.00;99.90
22984;DHT22;11658;48.908;9.140;2022-08-18T04:38:38;19.00;99.90
22984;DHT22;11658;48.908;9.140;2022-08-18T04:41:05;19.00;99.90
22984;DHT22;11658;48.908;9.140;2022-08-18T04:43:31;19.10;99.90
22984;DHT22;11658;48.908;9.140;2022-08-18T04:45:57;19.10;99.90
22984;DHT22;11658;48.908;9.140;2022-08-18T04:51:10;19.20;99.90
22984;DHT22;11658;48.908;9.140;2022-08-18T04:53:37;19.20;99.90
22984;DHT22;11658;48.908;9.140;2022-08-18T04:56:31;19.30;99.90
22984;DHT22;11658;48.908;9.140;2022-08-18T04:58:59;19.40;99.90
22984;DHT22;11658;48.908;9.140;2022-08-18T05:01:28;19.40;99.90
22984;DHT22;11658;48.908;9.140;2022-08-18T05:03:56;19.40;99.90
22984;DHT22;11658;48.908;9.140;2022-08-18T05:06:24;19.40;99.90
22984;DHT22;11658;48.908;9.140;2022-08-18T05:09:04;19.40;99.90
22984;DHT22;11658;48.908;9.140;2022-08-18T05:11:31;19.40;99.90
22984;DHT22;11658;48.908;9.140;2022-08-18T05:14:05;19.30;99.90
22984;DHT22;11658;48.908;9.140;2022-08-18T05:16:33;19.20;99.90
22984;DHT22;11658;48.908;9.140;2022-08-18T05:19:05;19.20;99.90
22984;DHT22;11658;48.908;9.140;2022-08-18T05:21:32;19.20;99.90
22984;DHT22;11658;48.908;9.140;2022-08-18T05:23:58;19.20;99.90
22984;DHT22;11658;48.908;9.140;2022-08-18T05:26:25;19.30;99.90
22984;DHT22;11658;48.908;9.140;2022-08-18T05:28:52;19.30;99.90
22984;DHT22;11658;48.908;9.140;2022-08-18T05:31:19;19.40;99.90
22984;DHT22;11658;48.908;9.140;2022-08-18T05:33:46;19.60;99.90
22984;DHT22;11658;48.908;9.140;2022-08-18T05:39:14;19.90;99.90
22984;DHT22;11658;48.908;9.140;2022-08-18T05:41:50;20.00;99.90
22984;DHT22;11658;48.908;9.140;2022-08-18T05:44:21;20.30;99.90
22984;DHT22;11658;48.908;9.140;2022-08-18T05:47:12;20.60;99.90
22984;DHT22;11658;48.908;9.140;2022-08-18T05:49:39;21.10;99.90
22984;DHT22;11658;48.908;9.140;2022-08-18T05:52:11;21.40;99.90
22984;DHT22;11658;48.908;9.140;2022-08-18T05:54:44;21.80;99.90
22984;DHT22;11658;48.908;9.140;2022-08-18T05:57:45;22.10;99.90
22984;DHT22;11658;48.908;9.140;2022-08-18T06:00:19;23.40;99.90
22984;DHT22;11658;48.908;9.140;2022-08-18T06:03:19;24.90;99.90
22984;DHT22;11658;48.908;9.140;2022-08-18T06:05:51;25.40;99.90
22984;DHT22;11658;48.908;9.140;2022-08-18T06:08:20;25.00;99.90
22984;DHT22;11658;48.908;9.140;2022-08-18T06:10:49;24.40;99.90
22984;DHT22;11658;48.908;9.140;2022-08-18T06:13:16;23.90;99.90
22984;DHT22;11658;48.908;9.140;2022-08-18T06:24:33;22.40;99.90
22984;DHT22;11658;48.908;9.140;2022-08-18T06:27:07;22.30;99.90
22984;DHT22;11658;48.908;9.140;2022-08-18T06:35:37;22.40;99.90
22984;DHT22;11658;48.908;9.140;2022-08-18T06:41:43;22.30;99.90
22984;DHT22;11658;48.908;9.140;2022-08-18T06:44:32;22.30;99.90
22984;DHT22;11658;48.908;9.140;2022-08-18T06:52:33;22.60;99.90
22984;DHT22;11658;48.908;9.140;2022-08-18T06:57:33;23.00;99.90
22984;DHT22;11658;48.908;9.140;2022-08-18T07:00:05;23.30;99.90
22984;DHT22;11658;48.908;9.140;2022-08-18T07:02:44;23.50;99.90
22984;DHT22;11658;48.908;9.140;2022-08-18T07:05:18;23.50;99.90
22984;DHT22;11658;48.908;9.140;2022-08-18T07:07:45;23.40;99.90
22984;DHT22;11658;48.908;9.140;2022-08-18T07:12:40;22.80;99.90
22984;DHT22;11658;48.908;9.140;2022-08-18T07:15:06;23.00;99.90
22984;DHT22;11658;48.908;9.140;2022-08-18T07:17:37;23.00;99.90
22984;DHT22;11658;48.908;9.140;2022-08-18T07:23:00;22.70;99.90
22984;DHT22;11658;48.908;9.140;2022-08-18T07:25:30;22.60;99.90
22984;DHT22;11658;48.908;9.140;2022-08-18T07:27:57;22.60;99.90
22984;DHT22;11658;48.908;9.140;2022-08-18T07:30:35;22.60;99.90
22984;DHT22;11658;48.908;9.140;2022-08-18T07:38:10;21.80;99.90
22984;DHT22;11658;48.908;9.140;2022-08-18T07:41:11;21.70;99.90
22984;DHT22;11658;48.908;9.140;2022-08-18T07:43:50;21.50;99.90
22984;DHT22;11658;48.908;9.140;2022-08-18T07:46:25;21.60;99.90
22984;DHT22;11658;48.908;9.140;2022-08-18T07:48:55;21.60;99.90
22984;DHT22;11658;48.908;9.140;2022-08-18T07:51:44;21.60;99.90
22984;DHT22;11658;48.908;9.140;2022-08-18T08:02:05;21.30;99.90
22984;DHT22;11658;48.908;9.140;2022-08-18T08:07:13;21.10;99.90
22984;DHT22;11658;48.908;9.140;2022-08-18T08:12:44;21.10;99.90
22984;DHT22;11658;48.908;9.140;2022-08-18T08:15:53;21.20;99.90
22984;DHT22;11658;48.908;9.140;2022-08-18T08:20:57;21.20;99.90
22984;DHT22;11658;48.908;9.140;2022-08-18T08:34:50;21.20;99.90
22984;DHT22;11658;48.908;9.140;2022-08-18T08:40:15;21.10;99.90
22984;DHT22;11658;48.908;9.140;2022-08-18T08:42:55;21.00;99.90
22984;DHT22;11658;48.908;9.140;2022-08-18T08:45:27;21.00;99.90
22984;DHT22;11658;48.908;9.140;2022-08-18T08:48:05;21.10;99.90
22984;DHT22;11658;48.908;9.140;2022-08-18T08:50:48;21.40;99.90
22984;DHT22;11658;48.908;9.140;2022-08-18T08:53:42;21.70;99.90
22984;DHT22;11658;48.908;9.140;2022-08-18T08:56:09;21.80;99.90
22984;DHT22;11658;48.908;9.140;2022-08-18T08:58:51;22.00;99.90
22984;DHT22;11658;48.908;9.140;2022-08-18T09:02:14;22.20;99.90
22984;DHT22;11658;48.908;9.140;2022-08-18T09:04:27;22.30;99.90
22984;DHT22;11658;48.908;9.140;2022-08-18T09:09:36;23.10;99.90
22984;DHT22;11658;48.908;9.140;2022-08-18T09:15:09;22.80;99.90
22984;DHT22;11658;48.908;9.140;2022-08-18T09:18:10;22.70;99.90
22984;DHT22;11658;48.908;9.140;2022-08-18T09:23:42;23.50;99.90
22984;DHT22;11658;48.908;9.140;2022-08-18T09:26:24;23.30;99.90
22984;DHT22;11658;48.908;9.140;2022-08-18T09:29:14;23.50;99.90
22984;DHT22;11658;48.908;9.140;2022-08-18T09:31:44;23.30;99.90
22984;DHT22;11658;48.908;9.140;2022-08-18T09:34:23;22.90;99.90
22984;DHT22;11658;48.908;9.140;2022-08-18T09:40:12;23.60;99.90
22984;DHT22;11658;48.908;9.140;2022-08-18T09:50:38;24.40;99.90
22984;DHT22;11658;48.908;9.140;2022-08-18T09:53:36;23.80;99.90
22984;DHT22;11658;48.908;9.140;2022-08-18T09:56:04;23.90;99.90
22984;DHT22;11658;48.908;9.140;2022-08-18T09:58:55;24.10;99.90
22984;DHT22;11658;48.908;9.140;2022-08-18T10:04:30;24.90;99.90
22984;DHT22;11658;48.908;9.140;2022-08-18T10:12:27;24.20;99.90
22984;DHT22;11658;48.908;9.140;2022-08-18T10:15:19;24.40;99.90
22984;DHT22;11658;48.908;9.140;2022-08-18T10:22:48;24.40;99.90
22984;DHT22;11658;48.908;9.140;2022-08-18T10:25:36;24.60;99.90
22984;DHT22;11658;48.908;9.140;2022-08-18T10:28:03;24.80;99.90
22984;DHT22;11658;48.908;9.140;2022-08-18T10:33:07;24.10;99.90
22984;DHT22;11658;48.908;9.140;2022-08-18T10:38:22;24.80;99.90
22984;DHT22;11658;48.908;9.140;2022-08-18T10:41:02;24.70;99.90
22984;DHT22;11658;48.908;9.140;2022-08-18T10:43:36;25.10;99.90
22984;DHT22;11658;48.908;9.140;2022-08-18T10:46:04;25.00;99.90
22984;DHT22;11658;48.908;9.140;2022-08-18T10:48:31;24.80;99.90
22984;DHT22;11658;48.908;9.140;2022-08-18T10:54:17;24.70;99.90
22984;DHT22;11658;48.908;9.140;2022-08-18T10:56:54;24.80;99.90
22984;DHT22;11658;48.908;9.140;2022-08-18T10:59:46;25.00;99.90
22984;DHT22;11658;48.908;9.140;2022-08-18T11:04:48;24.70;99.90
22984;DHT22;11658;48.908;9.140;2022-08-18T11:07:23;25.10;99.90
22984;DHT22;11658;48.908;9.140;2022-08-18T11:09:51;25.30;99.90
22984;DHT22;11658;48.908;9.140;2022-08-18T11:15:42;26.00;99.90
22984;DHT22;11658;48.908;9.140;2022-08-18T11:18:29;25.70;99.90
22984;DHT22;11658;48.908;9.140;2022-08-18T11:29:39;26.50;99.90
22984;DHT22;11658;48.908;9.140;2022-08-18T11:32:08;27.00;99.90
22984;DHT22;11658;48.908;9.140;2022-08-18T11:34:42;27.00;99.90
22984;DHT22;11658;48.908;9.140;2022-08-18T11:39:50;26.60;99.90
22984;DHT22;11658;48.908;9.140;2022-08-18T11:42:19;26.60;99.90
22984;DHT22;11658;48.908;9.140;2022-08-18T11:45:03;26.90;99.90
22984;DHT22;11658;48.908;9.140;2022-08-18T11:47:29;27.20;99.90
22984;DHT22;11658;48.908;9.140;2022-08-18T11:50:13;27.00;99.90
22984;DHT22;11658;48.908;9.140;2022-08-18T11:52:51;26.80;99.90
22984;DHT22;11658;48.908;9.140;2022-08-18T11:55:30;26.90;99.90
22984;DHT22;11658;48.908;9.140;2022-08-18T11:57:59;27.50;99.90
22984;DHT22;11658;48.908;9.140;2022-08-18T12:03:05;27.40;99.90
22984;DHT22;11658;48.908;9.140;2022-08-18T12:05:50;27.30;99.90
22984;DHT22;11658;48.908;9.140;2022-08-18T12:11:16;27.60;99.90
22984;DHT22;11658;48.908;9.140;2022-08-18T12:13:47;27.20;99.90
22984;DHT22;11658;48.908;9.140;2022-08-18T12:16:38;26.60;99.90
22984;DHT22;11658;48.908;9.140;2022-08-18T12:19:07;26.40;99.90
22984;DHT22;11658;48.908;9.140;2022-08-18T12:21:41;26.60;99.90
22984;DHT22;11658;48.908;9.140;2022-08-18T12:24:27;26.20;99.90
22984;DHT22;11658;48.908;9.140;2022-08-18T12:26:53;25.90;99.90
22984;DHT22;11658;48.908;9.140;2022-08-18T12:29:20;25.70;99.90
22984;DHT22;11658;48.908;9.140;2022-08-18T12:31:48;26.00;99.90
22984;DHT22;11658;48.908;9.140;2022-08-18T12:34:18;26.10;99.90
22984;DHT22;11658;48.908;9.140;2022-08-18T12:36:44;26.00;99.90
22984;DHT22;11658;48.908;9.140;2022-08-18T12:39:10;26.20;99.90
22984;DHT22;11658;48.908;9.140;2022-08-18T12:41:36;26.30;99.90
22984;DHT22;11658;48.908;9.140;2022-08-18T12:44:02;26.20;99.90
22984;DHT22;11658;48.908;9.140;2022-08-18T12:46:28;26.30;99.90
22984;DHT22;11658;48.908;9.140;2022-08-18T12:48:54;26.40;99.90
22984;DHT22;11658;48.908;9.140;2022-08-18T12:51:20;26.10;99.90
22984;DHT22;11658;48.908;9.140;2022-08-18T12:53:46;26.10;99.90
22984;DHT22;11658;48.908;9.140;2022-08-18T12:56:19;26.40;99.90
22984;DHT22;11658;48.908;9.140;2022-08-18T12:58:46;26.80;99.90
22984;DHT22;11658;48.908;9.140;2022-08-18T13:01:12;27.20;99.90
22984;DHT22;11658;48.908;9.140;2022-08-18T13:03:38;27.10;99.90
22984;DHT22;11658;48.908;9.140;2022-08-18T13:06:03;26.90;99.90
22984;DHT22;11658;48.908;9.140;2022-08-18T13:08:29;26.90;99.90
22984;DHT22;11658;48.908;9.140;2022-08-18T13:10:55;26.50;99.90
22984;DHT22;11658;48.908;9.140;2022-08-18T13:13:20;26.80;99.90
22984;DHT22;11658;48.908;9.140;2022-08-18T13:15:46;27.10;99.90
22984;DHT22;11658;48.908;9.140;2022-08-18T13:18:12;27.30;99.90
22984;DHT22;11658;48.908;9.140;2022-08-18T13:20:39;27.40;99.90
22984;DHT22;11658;48.908;9.140;2022-08-18T13:23:05;26.80;99.90
22984;DHT22;11658;48.908;9.140;2022-08-18T13:25:31;26.50;99.90
22984;DHT22;11658;48.908;9.140;2022-08-18T13:27:56;26.50;99.90
22984;DHT22;11658;48.908;9.140;2022-08-18T13:30:22;26.90;99.90
22984;DHT22;11658;48.908;9.140;2022-08-18T13:32:48;27.00;99.90
22984;DHT22;11658;48.908;9.140;2022-08-18T13:35:14;26.80;99.90
22984;DHT22;11658;48.908;9.140;2022-08-18T13:37:39;27.10;99.90
22984;DHT22;11658;48.908;9.140;2022-08-18T13:40:07;27.50;99.90
22984;DHT22;11658;48.908;9.140;2022-08-18T13:42:41;27.80;99.90
22984;DHT22;11658;48.908;9.140;2022-08-18T13:45:07;28.10;99.90
22984;DHT22;11658;48.908;9.140;2022-08-18T13:47:33;28.40;99.90
22984;DHT22;11658;48.908;9.140;2022-08-18T13:49:59;28.00;99.90
22984;DHT22;11658;48.908;9.140;2022-08-18T13:52:27;27.90;99.90
22984;DHT22;11658;48.908;9.140;2022-08-18T13:54:53;27.60;99.90
22984;DHT22;11658;48.908;9.140;2022-08-18T13:57:19;27.30;99.90
22984;DHT22;11658;48.908;9.140;2022-08-18T13:59:44;27.50;99.90
22984;DHT22;11658;48.908;9.140;2022-08-18T14:02:10;27.70;99.90
22984;DHT22;11658;48.908;9.140;2022-08-18T14:04:37;27.80;99.90
22984;DHT22;11658;48.908;9.140;2022-08-18T14:07:05;28.20;99.90
22984;DHT22;11658;48.908;9.140;2022-08-18T14:09:31;28.10;99.90
22984;DHT22;11658;48.908;9.140;2022-08-18T14:11:58;28.00;99.90
22984;DHT22;11658;48.908;9.140;2022-08-18T14:14:23;27.90;99.90
22984;DHT22;11658;48.908;9.140;2022-08-18T14:16:49;27.90;99.90
22984;DHT22;11658;48.908;9.140;2022-08-18T14:19:15;27.70;99.90
22984;DHT22;11658;48.908;9.140;2022-08-18T14:21:59;27.80;99.90
22984;DHT22;11658;48.908;9.140;2022-08-18T14:24:43;27.80;99.90
22984;DHT22;11658;48.908;9.140;2022-08-18T14:27:35;28.10;99.90
22984;DHT22;11658;48.908;9.140;2022-08-18T14:30:03;28.30;99.90
22984;DHT22;11658;48.908;9.140;2022-08-18T14:32:31;28.40;99.90
22984;DHT22;11658;48.908;9.140;2022-08-18T14:34:58;28.20;99.90
22984;DHT22;11658;48.908;9.140;2022-08-18T14:37:25;28.00;99.90
22984;DHT22;11658;48.908;9.140;2022-08-18T14:39:50;28.20;99.90
22984;DHT22;11658;48.908;9.140;2022-08-18T14:42:17;28.50;99.90
22984;DHT22;11658;48.908;9.140;2022-08-18T14:44:44;28.40;99.90
22984;DHT22;11658;48.908;9.140;2022-08-18T14:47:10;28.40;99.90
22984;DHT22;11658;48.908;9.140;2022-08-18T14:49:35;28.50;99.90
22984;DHT22;11658;48.908;9.140;2022-08-18T14:52:02;28.30;99.90
22984;DHT22;11658;48.908;9.140;2022-08-18T14:54:29;28.40;99.90
22984;DHT22;11658;48.908;9.140;2022-08-18T14:56:56;28.70;99.90
22984;DHT22;11658;48.908;9.140;2022-08-18T14:59:21;28.90;99.90
22984;DHT22;11658;48.908;9.140;2022-08-18T15:01:49;29.10;99.90
22984;DHT22;11658;48.908;9.140;2022-08-18T15:04:15;28.80;99.90
22984;DHT22;11658;48.908;9.140;2022-08-18T15:06:41;28.60;99.90
22984;DHT22;11658;48.908;9.140;2022-08-18T15:09:07;28.50;99.90
22984;DHT22;11658;48.908;9.140;2022-08-18T15:11:34;28.10;99.90
22984;DHT22;11658;48.908;9.140;2022-08-18T15:16:30;28.20;99.90
22984;DHT22;11658;48.908;9.140;2022-08-18T15:18:59;28.50;99.90
22984;DHT22;11658;48.908;9.140;2022-08-18T15:21:25;28.40;99.90
22984;DHT22;11658;48.908;9.140;2022-08-18T15:24:10;28.40;99.90
22984;DHT22;11658;48.908;9.140;2022-08-18T15:26:56;27.90;99.90
22984;DHT22;11658;48.908;9.140;2022-08-18T15:29:22;27.90;99.90
22984;DHT22;11658;48.908;9.140;2022-08-18T15:31:48;28.10;99.90
22984;DHT22;11658;48.908;9.140;2022-08-18T15:34:14;28.40;99.90
22984;DHT22;11658;48.908;9.140;2022-08-18T15:36:41;28.50;99.90
22984;DHT22;11658;48.908;9.140;2022-08-18T15:39:07;28.20;99.90
22984;DHT22;11658;48.908;9.140;2022-08-18T15:41:36;28.30;99.90
22984;DHT22;11658;48.908;9.140;2022-08-18T15:44:04;28.20;99.90
22984;DHT22;11658;48.908;9.140;2022-08-18T15:46:32;28.00;99.90
22984;DHT22;11658;48.908;9.140;2022-08-18T15:48:58;27.90;99.90
22984;DHT22;11658;48.908;9.140;2022-08-18T15:51:24;28.00;99.90
22984;DHT22;11658;48.908;9.140;2022-08-18T15:53:50;28.00;99.90
22984;DHT22;11658;48.908;9.140;2022-08-18T15:56:18;28.00;99.90
22984;DHT22;11658;48.908;9.140;2022-08-18T15:58:44;28.00;99.90
22984;DHT22;11658;48.908;9.140;2022-08-18T16:01:11;27.70;99.90
22984;DHT22;11658;48.908;9.140;2022-08-18T16:03:37;27.70;99.90
22984;DHT22;11658;48.908;9.140;2022-08-18T16:06:03;27.90;99.90
22984;DHT22;11658;48.908;9.140;2022-08-18T16:08:28;27.70;99.90
22984;DHT22;11658;48.908;9.140;2022-08-18T16:10:55;27.80;99.90
22984;DHT22;11658;48.908;9.140;2022-08-18T16:13:21;28.00;99.90
22984;DHT22;11658;48.908;9.140;2022-08-18T16:15:48;28.00;99.90
22984;DHT22;11658;48.908;9.140;2022-08-18T16:18:16;27.90;99.90
22984;DHT22;11658;48.908;9.140;2022-08-18T16:20:43;28.00;99.90
22984;DHT22;11658;48.908;9.140;2022-08-18T16:23:10;27.60;99.90
22984;DHT22;11658;48.908;9.140;2022-08-18T16:25:40;27.40;99.90
22984;DHT22;11658;48.908;9.140;2022-08-18T16:28:07;27.20;99.90
22984;DHT22;11658;48.908;9.140;2022-08-18T16:30:33;27.00;99.90
22984;DHT22;11658;48.908;9.140;2022-08-18T16:33:00;27.00;99.90
22984;DHT22;11658;48.908;9.140;2022-08-18T16:35:30;27.00;99.90
22984;DHT22;11658;48.908;9.140;2022-08-18T16:38:01;27.10;99.90
22984;DHT22;11658;48.908;9.140;2022-08-18T16:40:27;27.00;99.90
22984;DHT22;11658;48.908;9.140;2022-08-18T16:42:54;26.60;99.90
22984;DHT22;11658;48.908;9.140;2022-08-18T16:45:20;26.40;99.90
22984;DHT22;11658;48.908;9.140;2022-08-18T16:47:45;26.30;99.90
22984;DHT22;11658;48.908;9.140;2022-08-18T16:50:14;26.40;99.90
22984;DHT22;11658;48.908;9.140;2022-08-18T16:52:42;26.30;99.90
22984;DHT22;11658;48.908;9.140;2022-08-18T16:55:10;26.30;99.90
22984;DHT22;11658;48.908;9.140;2022-08-18T16:57:41;26.40;99.90
22984;DHT22;11658;48.908;9.140;2022-08-18T17:00:26;26.50;99.90
22984;DHT22;11658;48.908;9.140;2022-08-18T17:03:11;26.50;99.90
22984;DHT22;11658;48.908;9.140;2022-08-18T17:06:05;26.60;99.90
22984;DHT22;11658;48.908;9.140;2022-08-18T17:08:33;26.70;99.90
22984;DHT22;11658;48.908;9.140;2022-08-18T17:11:04;26.70;99.90
22984;DHT22;11658;48.908;9.140;2022-08-18T17:13:32;26.80;99.90
22984;DHT22;11658;48.908;9.140;2022-08-18T17:15:57;26.70;99.90
22984;DHT22;11658;48.908;9.140;2022-08-18T17:18:23;26.70;99.90
22984;DHT22;11658;48.908;9.140;2022-08-18T17:20:50;26.50;99.90
22984;DHT22;11658;48.908;9.140;2022-08-18T17:23:16;26.20;99.90
22984;DHT22;11658;48.908;9.140;2022-08-18T17:25:42;26.20;99.90
22984;DHT22;11658;48.908;9.140;2022-08-18T17:28:10;26.10;99.90
22984;DHT22;11658;48.908;9.140;2022-08-18T17:30:42;25.90;99.90
22984;DHT22;11658;48.908;9.140;2022-08-18T17:33:23;25.80;99.90
22984;DHT22;11658;48.908;9.140;2022-08-18T17:35:51;25.70;99.90
22984;DHT22;11658;48.908;9.140;2022-08-18T17:40:55;25.80;99.90
22984;DHT22;11658;48.908;9.140;2022-08-18T17:43:24;25.80;99.90
22984;DHT22;11658;48.908;9.140;2022-08-18T17:46:03;25.70;99.90
22984;DHT22;11658;48.908;9.140;2022-08-18T17:48:46;25.70;99.90
22984;DHT22;11658;48.908;9.140;2022-08-18T17:51:21;25.70;99.90
22984;DHT22;11658;48.908;9.140;2022-08-18T17:54:28;25.70;99.90
22984;DHT22;11658;48.908;9.140;2022-08-18T17:56:58;25.50;99.90
22984;DHT22;11658;48.908;9.140;2022-08-18T17:59:42;25.40;99.90
22984;DHT22;11658;48.908;9.140;2022-08-18T18:02:13;25.40;99.90
22984;DHT22;11658;48.908;9.140;2022-08-18T18:04:43;25.30;99.90
22984;DHT22;11658;48.908;9.140;2022-08-18T18:07:24;25.30;99.90
22984;DHT22;11658;48.908;9.140;2022-08-18T18:10:03;25.20;99.90
22984;DHT22;11658;48.908;9.140;2022-08-18T18:12:31;25.10;99.90
22984;DHT22;11658;48.908;9.140;2022-08-18T18:14:58;25.00;99.90
22984;DHT22;11658;48.908;9.140;2022-08-18T18:17:27;24.90;99.90
22984;DHT22;11658;48.908;9.140;2022-08-18T18:22:41;24.80;99.90
22984;DHT22;11658;48.908;9.140;2022-08-18T18:25:09;24.70;99.90
22984;DHT22;11658;48.908;9.140;2022-08-18T18:35:28;24.50;99.90
22984;DHT22;11658;48.908;9.140;2022-08-18T18:40:28;24.30;99.90
22984;DHT22;11658;48.908;9.140;2022-08-18T18:42:55;24.20;99.90
22984;DHT22;11658;48.908;9.140;2022-08-18T18:45:29;24.20;99.90
22984;DHT22;11658;48.908;9.140;2022-08-18T18:48:08;24.20;99.90
22984;DHT22;11658;48.908;9.140;2022-08-18T18:51:03;24.20;99.90
22984;DHT22;11658;48.908;9.140;2022-08-18T18:53:51;24.10;99.90
22984;DHT22;11658;48.908;9.140;2022-08-18T18:56:34;24.10;99.90
22984;DHT22;11658;48.908;9.140;2022-08-18T18:59:13;24.00;99.90
22984;DHT22;11658;48.908;9.140;2022-08-18T19:04:31;24.00;99.90
22984;DHT22;11658;48.908;9.140;2022-08-18T19:09:46;23.90;99.90
22984;DHT22;11658;48.908;9.140;2022-08-18T19:12:29;23.80;99.90
22984;DHT22;11658;48.908;9.140;2022-08-18T19:15:02;23.80;99.90
22984;DHT22;11658;48.908;9.140;2022-08-18T19:17:39;23.70;99.90
22984;DHT22;11658;48.908;9.140;2022-08-18T19:20:07;23.60;99.90
22984;DHT22;11658;48.908;9.140;2022-08-18T19:22:51;23.50;99.90
22984;DHT22;11658;48.908;9.140;2022-08-18T19:25:33;23.40;99.90
22984;DHT22;11658;48.908;9.140;2022-08-18T19:28:12;23.40;99.90
22984;DHT22;11658;48.908;9.140;2022-08-18T19:30:43;23.30;99.90
22984;DHT22;11658;48.908;9.140;2022-08-18T19:33:17;23.40;99.90
22984;DHT22;11658;48.908;9.140;2022-08-18T19:36:00;23.50;99.90
22984;DHT22;11658;48.908;9.140;2022-08-18T19:44:07;23.50;99.90
22984;DHT22;11658;48.908;9.140;2022-08-18T19:46:52;23.50;99.90
22984;DHT22;11658;48.908;9.140;2022-08-18T19:51:57;23.40;99.90
22984;DHT22;11658;48.908;9.140;2022-08-18T19:57:22;23.30;99.90
22984;DHT22;11658;48.908;9.140;2022-08-18T20:00:11;23.30;99.90
22984;DHT22;11658;48.908;9.140;2022-08-18T20:14:17;23.10;99.90
22984;DHT22;11658;48.908;9.140;2022-08-18T20:20:16;23.10;99.90
22984;DHT22;11658;48.908;9.140;2022-08-18T20:24:57;23.00;99.90
22984;DHT22;11658;48.908;9.140;2022-08-18T20:27:40;22.90;99.90
22984;DHT22;11658;48.908;9.140;2022-08-18T20:38:32;22.70;99.90
22984;DHT22;11658;48.908;9.140;2022-08-18T20:41:24;22.70;99.90
22984;DHT22;11658;48.908;9.140;2022-08-18T20:52:40;22.60;99.90
22984;DHT22;11658;48.908;9.140;2022-08-18T20:57:42;22.50;99.90
22984;DHT22;11658;48.908;9.140;2022-08-18T21:00:19;22.50;99.90
22984;DHT22;11658;48.908;9.140;2022-08-18T21:02:52;22.50;99.90
22984;DHT22;11658;48.908;9.140;2022-08-18T21:05:45;22.40;99.90
22984;DHT22;11658;48.908;9.140;2022-08-18T21:13:47;22.40;99.90
22984;DHT22;11658;48.908;9.140;2022-08-18T21:19:05;22.50;99.90
22984;DHT22;11658;48.908;9.140;2022-08-18T21:21:37;22.50;99.90
22984;DHT22;11658;48.908;9.140;2022-08-18T21:24:03;22.40;99.90
22984;DHT22;11658;48.908;9.140;2022-08-18T21:26:31;22.50;99.90
22984;DHT22;11658;48.908;9.140;2022-08-18T21:29:08;22.40;99.90
22984;DHT22;11658;48.908;9.140;2022-08-18T21:31:39;22.40;99.90
22984;DHT22;11658;48.908;9.140;2022-08-18T21:34:07;22.40;99.90
22984;DHT22;11658;48.908;9.140;2022-08-18T21:36:35;22.30;99.90
22984;DHT22;11658;48.908;9.140;2022-08-18T21:39:14;22.30;99.90
22984;DHT22;11658;48.908;9.140;2022-08-18T21:41:58;22.30;99.90
22984;DHT22;11658;48.908;9.140;2022-08-18T21:44:37;22.20;99.90
22984;DHT22;11658;48.908;9.140;2022-08-18T21:47:21;22.20;99.90
22984;DHT22;11658;48.908;9.140;2022-08-18T21:52:24;22.00;99.90
22984;DHT22;11658;48.908;9.140;2022-08-18T21:54:51;22.00;99.90
22984;DHT22;11658;48.908;9.140;2022-08-18T21:57:28;21.90;99.90
